sensor_id;sensor_type;location;lat;lon;timestamp;temperature;humidity
19580;DHT22;9936;51.040;13.918;2023-01-19T00:01:47;0.30;99.90
19580;DHT22;9936;51.040;13.918;2023-01-19T00:05:34;0.30;99.90
19580;DHT22;9936;51.040;13.918;2023-01-19T00:09:20;0.30;99.90
19580;DHT22;9936;51.040;13.918;2023-01-19T00:13:06;0.30;99.90
19580;DHT22;9936;51.040;13.918;2023-01-19T00:16:52;0.20;99.90
19580;DHT22;9936;51.040;13.918;2023-01-19T00:20:38;0.20;99.90
19580;DHT22;9936;51.040;13.918;2023-01-19T00:24:24;0.30;99.90
19580;DHT22;9936;51.040;13.918;2023-01-19T00:28:11;0.20;99.90
19580;DHT22;9936;51.040;13.918;2023-01-19T00:31:57;0.10;99.90
19580;DHT22;9936;51.040;13.918;2023-01-19T00:35:42;0.00;99.90
19580;DHT22;9936;51.040;13.918;2023-01-19T00:39:28;-0.20;99.90
19580;DHT22;9936;51.040;13.918;2023-01-19T00:43:14;0.00;99.90
19580;DHT22;9936;51.040;13.918;2023-01-19T00:46:59;0.00;99.90
19580;DHT22;9936;51.040;13.918;2023-01-19T00:50:48;0.10;99.90
19580;DHT22;9936;51.040;13.918;2023-01-19T00:54:33;0.10;99.90
19580;DHT22;9936;51.040;13.918;2023-01-19T00:58:19;0.00;99.90
19580;DHT22;9936;51.040;13.918;2023-01-19T01:02:07;0.00;99.90
19580;DHT22;9936;51.040;13.918;2023-01-19T01:05:52;0.00;99.90
19580;DHT22;9936;51.040;13.918;2023-01-19T01:09:38;-0.10;99.90
19580;DHT22;9936;51.040;13.918;2023-01-19T01:13:24;0.10;99.90
19580;DHT22;9936;51.040;13.918;2023-01-19T01:17:09;0.10;99.90
19580;DHT22;9936;51.040;13.918;2023-01-19T01:21:06;0.10;99.90
19580;DHT22;9936;51.040;13.918;2023-01-19T01:24:52;-0.10;99.90
19580;DHT22;9936;51.040;13.918;2023-01-19T01:28:37;-0.10;99.90
19580;DHT22;9936;51.040;13.918;2023-01-19T01:32:23;-0.30;99.90
19580;DHT22;9936;51.040;13.918;2023-01-19T01:36:10;-0.40;99.90
19580;DHT22;9936;51.040;13.918;2023-01-19T01:39:56;-0.50;99.90
19580;DHT22;9936;51.040;13.918;2023-01-19T01:43:48;-0.40;99.90
19580;DHT22;9936;51.040;13.918;2023-01-19T01:47:42;-0.40;99.90
19580;DHT22;9936;51.040;13.918;2023-01-19T01:51:41;-0.50;99.90
19580;DHT22;9936;51.040;13.918;2023-01-19T01:55:29;-0.60;99.90
19580;DHT22;9936;51.040;13.918;2023-01-19T01:59:55;-0.60;99.90
19580;DHT22;9936;51.040;13.918;2023-01-19T02:03:33;-0.70;99.90
19580;DHT22;9936;51.040;13.918;2023-01-19T02:11:53;-0.60;99.90
19580;DHT22;9936;51.040;13.918;2023-01-19T02:16:00;-0.90;99.90
19580;DHT22;9936;51.040;13.918;2023-01-19T02:19:47;-0.80;99.90
19580;DHT22;9936;51.040;13.918;2023-01-19T02:23:56;-0.70;99.90
19580;DHT22;9936;51.040;13.918;2023-01-19T02:27:46;-0.60;99.90
19580;DHT22;9936;51.040;13.918;2023-01-19T02:31:33;-0.50;99.90
19580;DHT22;9936;51.040;13.918;2023-01-19T02:35:20;-0.40;99.90
19580;DHT22;9936;51.040;13.918;2023-01-19T02:39:08;-0.50;99.90
19580;DHT22;9936;51.040;13.918;2023-01-19T02:42:56;-0.50;99.90
19580;DHT22;9936;51.040;13.918;2023-01-19T02:46:44;-0.40;99.90
19580;DHT22;9936;51.040;13.918;2023-01-19T02:50:38;-0.50;99.90
19580;DHT22;9936;51.040;13.918;2023-01-19T03:02:30;-0.50;99.90
19580;DHT22;9936;51.040;13.918;2023-01-19T03:06:40;-0.60;99.90
19580;DHT22;9936;51.040;13.918;2023-01-19T03:11:02;-0.60;99.90
19580;DHT22;9936;51.040;13.918;2023-01-19T03:14:49;-0.60;99.90
19580;DHT22;9936;51.040;13.918;2023-01-19T03:18:39;-0.60;99.90
19580;DHT22;9936;51.040;13.918;2023-01-19T03:22:28;-0.60;99.90
19580;DHT22;9936;51.040;13.918;2023-01-19T03:26:18;-0.70;99.90
19580;DHT22;9936;51.040;13.918;2023-01-19T03:30:08;-0.70;99.90
19580;DHT22;9936;51.040;13.918;2023-01-19T03:33:56;-0.70;99.90
19580;DHT22;9936;51.040;13.918;2023-01-19T03:37:45;-0.70;99.90
19580;DHT22;9936;51.040;13.918;2023-01-19T03:41:33;-0.80;99.90
19580;DHT22;9936;51.040;13.918;2023-01-19T03:45:19;-0.90;99.90
19580;DHT22;9936;51.040;13.918;2023-01-19T03:49:06;-0.90;99.90
19580;DHT22;9936;51.040;13.918;2023-01-19T03:53:00;-0.90;99.90
19580;DHT22;9936;51.040;13.918;2023-01-19T03:56:46;-0.80;99.90
19580;DHT22;9936;51.040;13.918;2023-01-19T04:00:33;-0.80;99.90
19580;DHT22;9936;51.040;13.918;2023-01-19T04:04:18;-0.80;99.90
19580;DHT22;9936;51.040;13.918;2023-01-19T04:08:04;-0.90;99.90
19580;DHT22;9936;51.040;13.918;2023-01-19T04:11:50;-0.90;99.90
19580;DHT22;9936;51.040;13.918;2023-01-19T04:15:36;-0.90;99.90
19580;DHT22;9936;51.040;13.918;2023-01-19T04:19:21;-1.00;99.90
19580;DHT22;9936;51.040;13.918;2023-01-19T04:23:08;-1.00;99.90
19580;DHT22;9936;51.040;13.918;2023-01-19T04:26:53;-1.00;99.90
19580;DHT22;9936;51.040;13.918;2023-01-19T04:30:39;-1.00;99.90
19580;DHT22;9936;51.040;13.918;2023-01-19T04:34:24;-1.10;99.90
19580;DHT22;9936;51.040;13.918;2023-01-19T04:38:10;-1.10;99.90
19580;DHT22;9936;51.040;13.918;2023-01-19T04:41:56;-1.10;99.90
19580;DHT22;9936;51.040;13.918;2023-01-19T04:45:45;-1.20;99.90
19580;DHT22;9936;51.040;13.918;2023-01-19T04:49:31;-1.20;99.90
19580;DHT22;9936;51.040;13.918;2023-01-19T04:53:17;-1.20;99.90
19580;DHT22;9936;51.040;13.918;2023-01-19T04:57:02;-1.20;99.90
19580;DHT22;9936;51.040;13.918;2023-01-19T05:00:48;-1.30;99.90
19580;DHT22;9936;51.040;13.918;2023-01-19T05:04:35;-1.30;99.90
19580;DHT22;9936;51.040;13.918;2023-01-19T05:08:23;-1.40;99.90
19580;DHT22;9936;51.040;13.918;2023-01-19T05:12:09;-1.40;99.90
19580;DHT22;9936;51.040;13.918;2023-01-19T05:15:54;-1.40;99.90
19580;DHT22;9936;51.040;13.918;2023-01-19T05:19:40;-1.40;99.90
19580;DHT22;9936;51.040;13.918;2023-01-19T05:23:25;-1.40;99.90
19580;DHT22;9936;51.040;13.918;2023-01-19T05:27:11;-1.40;99.90
19580;DHT22;9936;51.040;13.918;2023-01-19T05:39:34;-1.60;99.90
19580;DHT22;9936;51.040;13.918;2023-01-19T05:43:22;-1.60;99.90
19580;DHT22;9936;51.040;13.918;2023-01-19T05:47:13;-1.70;99.90
19580;DHT22;9936;51.040;13.918;2023-01-19T05:50:59;-1.70;99.90
19580;DHT22;9936;51.040;13.918;2023-01-19T08:12:03;-2.10;99.90
19580;DHT22;9936;51.040;13.918;2023-01-19T08:15:50;-2.20;99.90
19580;DHT22;9936;51.040;13.918;2023-01-19T08:19:36;-2.20;99.90
19580;DHT22;9936;51.040;13.918;2023-01-19T08:23:21;-2.00;99.90
19580;DHT22;9936;51.040;13.918;2023-01-19T08:27:07;-2.30;99.90
19580;DHT22;9936;51.040;13.918;2023-01-19T08:30:56;-2.20;99.90
19580;DHT22;9936;51.040;13.918;2023-01-19T08:34:41;-2.20;99.90
19580;DHT22;9936;51.040;13.918;2023-01-19T08:38:27;-2.20;99.90
19580;DHT22;9936;51.040;13.918;2023-01-19T08:42:12;-2.20;99.90
19580;DHT22;9936;51.040;13.918;2023-01-19T08:45:58;-2.10;99.90
19580;DHT22;9936;51.040;13.918;2023-01-19T08:49:53;-2.10;99.90
19580;DHT22;9936;51.040;13.918;2023-01-19T08:53:38;-2.10;99.90
19580;DHT22;9936;51.040;13.918;2023-01-19T08:57:26;-2.10;99.90
19580;DHT22;9936;51.040;13.918;2023-01-19T09:01:12;-2.10;99.90
19580;DHT22;9936;51.040;13.918;2023-01-19T09:04:59;-2.10;99.90
19580;DHT22;9936;51.040;13.918;2023-01-19T09:08:45;-2.10;99.90
19580;DHT22;9936;51.040;13.918;2023-01-19T09:12:31;-2.10;99.90
19580;DHT22;9936;51.040;13.918;2023-01-19T09:16:17;-1.90;99.90
19580;DHT22;9936;51.040;13.918;2023-01-19T09:20:03;-2.00;99.90
19580;DHT22;9936;51.040;13.918;2023-01-19T09:23:50;-1.90;99.90
19580;DHT22;9936;51.040;13.918;2023-01-19T09:27:36;-1.90;99.90
19580;DHT22;9936;51.040;13.918;2023-01-19T09:31:21;-1.80;99.90
19580;DHT22;9936;51.040;13.918;2023-01-19T09:35:08;-1.70;99.90
19580;DHT22;9936;51.040;13.918;2023-01-19T09:38:53;-1.70;99.90
19580;DHT22;9936;51.040;13.918;2023-01-19T09:42:42;-1.60;99.90
19580;DHT22;9936;51.040;13.918;2023-01-19T09:46:38;-1.50;99.90
19580;DHT22;9936;51.040;13.918;2023-01-19T09:50:27;-1.50;99.90
19580;DHT22;9936;51.040;13.918;2023-01-19T09:58:24;-1.30;99.90
19580;DHT22;9936;51.040;13.918;2023-01-19T10:06:36;-1.10;99.90
19580;DHT22;9936;51.040;13.918;2023-01-19T10:10:27;-1.10;99.90
19580;DHT22;9936;51.040;13.918;2023-01-19T10:14:29;-0.80;99.90
19580;DHT22;9936;51.040;13.918;2023-01-19T10:22:23;-0.80;99.90
19580;DHT22;9936;51.040;13.918;2023-01-19T10:26:17;-0.80;99.90
19580;DHT22;9936;51.040;13.918;2023-01-19T10:30:06;-0.70;99.90
19580;DHT22;9936;51.040;13.918;2023-01-19T10:33:53;-0.60;99.90
19580;DHT22;9936;51.040;13.918;2023-01-19T10:37:39;-0.50;99.90
19580;DHT22;9936;51.040;13.918;2023-01-19T10:41:49;-0.50;99.90
19580;DHT22;9936;51.040;13.918;2023-01-19T10:45:35;-0.40;99.90
19580;DHT22;9936;51.040;13.918;2023-01-19T10:49:38;-0.40;99.90
19580;DHT22;9936;51.040;13.918;2023-01-19T10:53:24;-0.20;99.90
19580;DHT22;9936;51.040;13.918;2023-01-19T10:57:11;-0.20;99.90
19580;DHT22;9936;51.040;13.918;2023-01-19T11:01:18;-0.30;99.90
19580;DHT22;9936;51.040;13.918;2023-01-19T11:05:27;-0.30;99.90
19580;DHT22;9936;51.040;13.918;2023-01-19T11:09:17;-0.30;99.90
19580;DHT22;9936;51.040;13.918;2023-01-19T11:13:11;-0.20;99.90
19580;DHT22;9936;51.040;13.918;2023-01-19T11:16:58;-0.10;99.90
19580;DHT22;9936;51.040;13.918;2023-01-19T11:20:50;0.00;99.90
19580;DHT22;9936;51.040;13.918;2023-01-19T11:58:17;0.30;99.90
19580;DHT22;9936;51.040;13.918;2023-01-19T12:02:39;0.40;99.90
19580;DHT22;9936;51.040;13.918;2023-01-19T12:06:24;0.30;99.90
19580;DHT22;9936;51.040;13.918;2023-01-19T12:10:31;0.30;99.90
19580;DHT22;9936;51.040;13.918;2023-01-19T12:14:30;0.40;99.90
19580;DHT22;9936;51.040;13.918;2023-01-19T12:18:25;0.50;99.90
19580;DHT22;9936;51.040;13.918;2023-01-19T12:22:15;0.50;99.90
19580;DHT22;9936;51.040;13.918;2023-01-19T12:26:15;0.50;99.90
19580;DHT22;9936;51.040;13.918;2023-01-19T12:30:04;0.50;99.90
19580;DHT22;9936;51.040;13.918;2023-01-19T12:33:50;0.50;99.90
19580;DHT22;9936;51.040;13.918;2023-01-19T12:37:40;0.50;99.90
19580;DHT22;9936;51.040;13.918;2023-01-19T12:41:34;0.50;99.90
19580;DHT22;9936;51.040;13.918;2023-01-19T12:45:23;0.60;99.90
19580;DHT22;9936;51.040;13.918;2023-01-19T12:53:19;0.60;99.90
19580;DHT22;9936;51.040;13.918;2023-01-19T12:57:16;0.60;99.90
19580;DHT22;9936;51.040;13.918;2023-01-19T13:01:17;0.80;99.90
19580;DHT22;9936;51.040;13.918;2023-01-19T13:09:43;0.70;99.90
19580;DHT22;9936;51.040;13.918;2023-01-19T13:13:32;0.70;99.90
19580;DHT22;9936;51.040;13.918;2023-01-19T13:17:48;0.70;99.90
19580;DHT22;9936;51.040;13.918;2023-01-19T13:21:40;0.80;99.90
19580;DHT22;9936;51.040;13.918;2023-01-19T13:25:32;0.80;99.90
19580;DHT22;9936;51.040;13.918;2023-01-19T13:29:34;0.80;99.90
19580;DHT22;9936;51.040;13.918;2023-01-19T13:33:25;0.90;99.90
19580;DHT22;9936;51.040;13.918;2023-01-19T13:37:17;0.90;99.90
19580;DHT22;9936;51.040;13.918;2023-01-19T13:41:04;1.10;99.90
19580;DHT22;9936;51.040;13.918;2023-01-19T13:44:52;1.10;99.90
19580;DHT22;9936;51.040;13.918;2023-01-19T13:48:39;1.10;99.90
19580;DHT22;9936;51.040;13.918;2023-01-19T13:52:35;1.10;99.90
19580;DHT22;9936;51.040;13.918;2023-01-19T13:56:22;1.10;99.90
19580;DHT22;9936;51.040;13.918;2023-01-19T14:03:57;1.10;99.90
19580;DHT22;9936;51.040;13.918;2023-01-19T14:07:43;1.10;99.90
19580;DHT22;9936;51.040;13.918;2023-01-19T14:11:29;1.20;99.90
19580;DHT22;9936;51.040;13.918;2023-01-19T14:15:14;1.10;99.90
19580;DHT22;9936;51.040;13.918;2023-01-19T14:19:01;1.20;99.90
19580;DHT22;9936;51.040;13.918;2023-01-19T14:22:49;1.30;99.90
19580;DHT22;9936;51.040;13.918;2023-01-19T14:26:49;1.20;99.90
19580;DHT22;9936;51.040;13.918;2023-01-19T14:30:36;1.10;99.90
19580;DHT22;9936;51.040;13.918;2023-01-19T14:38:24;1.10;99.90
19580;DHT22;9936;51.040;13.918;2023-01-19T14:42:17;1.10;99.90
19580;DHT22;9936;51.040;13.918;2023-01-19T14:46:04;1.10;99.90
19580;DHT22;9936;51.040;13.918;2023-01-19T14:49:49;1.10;99.90
19580;DHT22;9936;51.040;13.918;2023-01-19T14:53:37;0.90;99.90
19580;DHT22;9936;51.040;13.918;2023-01-19T14:57:23;1.10;99.90
19580;DHT22;9936;51.040;13.918;2023-01-19T15:01:08;0.90;99.90
19580;DHT22;9936;51.040;13.918;2023-01-19T15:04:54;1.00;99.90
19580;DHT22;9936;51.040;13.918;2023-01-19T15:08:42;0.80;99.90
19580;DHT22;9936;51.040;13.918;2023-01-19T15:12:28;0.70;99.90
19580;DHT22;9936;51.040;13.918;2023-01-19T15:16:14;0.70;99.90
19580;DHT22;9936;51.040;13.918;2023-01-19T15:19:59;0.60;99.90
19580;DHT22;9936;51.040;13.918;2023-01-19T15:23:46;0.60;99.90
19580;DHT22;9936;51.040;13.918;2023-01-19T15:27:34;0.50;99.90
19580;DHT22;9936;51.040;13.918;2023-01-19T15:31:22;0.50;99.90
19580;DHT22;9936;51.040;13.918;2023-01-19T15:38:58;0.40;99.90
19580;DHT22;9936;51.040;13.918;2023-01-19T15:42:44;0.40;99.90
19580;DHT22;9936;51.040;13.918;2023-01-19T15:46:30;0.30;99.90
19580;DHT22;9936;51.040;13.918;2023-01-19T15:50:16;0.20;99.90
19580;DHT22;9936;51.040;13.918;2023-01-19T15:54:02;0.10;99.90
19580;DHT22;9936;51.040;13.918;2023-01-19T15:57:47;0.10;99.90
19580;DHT22;9936;51.040;13.918;2023-01-19T16:01:33;0.00;99.90
19580;DHT22;9936;51.040;13.918;2023-01-19T16:05:19;0.00;99.90
19580;DHT22;9936;51.040;13.918;2023-01-19T16:09:04;0.00;99.90
19580;DHT22;9936;51.040;13.918;2023-01-19T16:12:51;0.00;99.90
19580;DHT22;9936;51.040;13.918;2023-01-19T16:16:37;0.00;99.90
19580;DHT22;9936;51.040;13.918;2023-01-19T16:20:23;0.00;99.90
19580;DHT22;9936;51.040;13.918;2023-01-19T16:24:08;0.00;99.90
19580;DHT22;9936;51.040;13.918;2023-01-19T16:27:54;0.00;99.90
19580;DHT22;9936;51.040;13.918;2023-01-19T16:31:42;-0.10;99.90
19580;DHT22;9936;51.040;13.918;2023-01-19T16:35:29;0.00;99.90
19580;DHT22;9936;51.040;13.918;2023-01-19T16:39:15;0.00;99.90
19580;DHT22;9936;51.040;13.918;2023-01-19T16:43:02;0.00;99.90
19580;DHT22;9936;51.040;13.918;2023-01-19T16:46:48;0.10;99.90
19580;DHT22;9936;51.040;13.918;2023-01-19T16:50:34;0.10;99.90
19580;DHT22;9936;51.040;13.918;2023-01-19T16:54:21;0.10;99.90
19580;DHT22;9936;51.040;13.918;2023-01-19T16:58:10;0.20;99.90
19580;DHT22;9936;51.040;13.918;2023-01-19T17:01:55;0.20;99.90
19580;DHT22;9936;51.040;13.918;2023-01-19T17:05:50;0.20;99.90
19580;DHT22;9936;51.040;13.918;2023-01-19T17:09:36;0.30;99.90
19580;DHT22;9936;51.040;13.918;2023-01-19T17:13:22;0.30;99.90
19580;DHT22;9936;51.040;13.918;2023-01-19T17:17:07;0.30;99.90
19580;DHT22;9936;51.040;13.918;2023-01-19T17:20:54;0.40;99.90
19580;DHT22;9936;51.040;13.918;2023-01-19T17:24:45;0.20;99.90
19580;DHT22;9936;51.040;13.918;2023-01-19T17:28:31;0.30;99.90
19580;DHT22;9936;51.040;13.918;2023-01-19T17:32:16;0.40;99.90
19580;DHT22;9936;51.040;13.918;2023-01-19T17:36:08;0.30;99.90
19580;DHT22;9936;51.040;13.918;2023-01-19T17:39:55;0.30;99.90
19580;DHT22;9936;51.040;13.918;2023-01-19T17:43:41;0.30;99.90
19580;DHT22;9936;51.040;13.918;2023-01-19T17:47:27;0.30;99.90
19580;DHT22;9936;51.040;13.918;2023-01-19T17:51:13;0.20;99.90
19580;DHT22;9936;51.040;13.918;2023-01-19T17:54:58;0.30;99.90
19580;DHT22;9936;51.040;13.918;2023-01-19T17:58:44;0.20;99.90
19580;DHT22;9936;51.040;13.918;2023-01-19T18:02:30;0.20;99.90
19580;DHT22;9936;51.040;13.918;2023-01-19T18:06:22;0.30;99.90
19580;DHT22;9936;51.040;13.918;2023-01-19T18:10:09;0.10;99.90
19580;DHT22;9936;51.040;13.918;2023-01-19T18:13:55;0.10;99.90
19580;DHT22;9936;51.040;13.918;2023-01-19T18:17:48;0.10;99.90
19580;DHT22;9936;51.040;13.918;2023-01-19T18:21:38;0.10;99.90
19580;DHT22;9936;51.040;13.918;2023-01-19T18:25:24;0.10;99.90
19580;DHT22;9936;51.040;13.918;2023-01-19T18:29:13;0.10;99.90
19580;DHT22;9936;51.040;13.918;2023-01-19T18:33:01;0.10;99.90
19580;DHT22;9936;51.040;13.918;2023-01-19T18:36:46;0.00;99.90
19580;DHT22;9936;51.040;13.918;2023-01-19T18:40:36;0.10;99.90
19580;DHT22;9936;51.040;13.918;2023-01-19T18:44:24;0.00;99.90
19580;DHT22;9936;51.040;13.918;2023-01-19T18:48:10;0.00;99.90
19580;DHT22;9936;51.040;13.918;2023-01-19T18:51:55;0.00;99.90
19580;DHT22;9936;51.040;13.918;2023-01-19T18:55:51;0.10;99.90
19580;DHT22;9936;51.040;13.918;2023-01-19T18:59:40;0.00;99.90
19580;DHT22;9936;51.040;13.918;2023-01-19T19:03:28;0.10;99.90
19580;DHT22;9936;51.040;13.918;2023-01-19T19:07:14;0.10;99.90
19580;DHT22;9936;51.040;13.918;2023-01-19T19:11:00;0.10;99.90
19580;DHT22;9936;51.040;13.918;2023-01-19T19:18:55;0.20;99.90
19580;DHT22;9936;51.040;13.918;2023-01-19T19:22:42;0.10;99.90
19580;DHT22;9936;51.040;13.918;2023-01-19T19:26:28;0.20;99.90
19580;DHT22;9936;51.040;13.918;2023-01-19T19:30:15;0.10;99.90
19580;DHT22;9936;51.040;13.918;2023-01-19T19:34:00;0.10;99.90
19580;DHT22;9936;51.040;13.918;2023-01-19T19:37:47;0.20;99.90
19580;DHT22;9936;51.040;13.918;2023-01-19T19:41:33;0.30;99.90
19580;DHT22;9936;51.040;13.918;2023-01-19T19:45:19;0.10;99.90
19580;DHT22;9936;51.040;13.918;2023-01-19T19:49:04;0.20;99.90
19580;DHT22;9936;51.040;13.918;2023-01-19T19:52:50;0.20;99.90
19580;DHT22;9936;51.040;13.918;2023-01-19T19:56:35;0.20;99.90
19580;DHT22;9936;51.040;13.918;2023-01-19T20:00:21;0.20;99.90
19580;DHT22;9936;51.040;13.918;2023-01-19T20:04:10;0.20;99.90
19580;DHT22;9936;51.040;13.918;2023-01-19T20:07:56;0.20;99.90
19580;DHT22;9936;51.040;13.918;2023-01-19T20:11:43;0.30;99.90
19580;DHT22;9936;51.040;13.918;2023-01-19T20:15:30;0.30;99.90
19580;DHT22;9936;51.040;13.918;2023-01-19T20:19:16;0.30;99.90
19580;DHT22;9936;51.040;13.918;2023-01-19T20:23:02;0.30;99.90
19580;DHT22;9936;51.040;13.918;2023-01-19T20:26:51;0.30;99.90
19580;DHT22;9936;51.040;13.918;2023-01-19T20:30:37;0.30;99.90
19580;DHT22;9936;51.040;13.918;2023-01-19T20:34:26;0.30;99.90
19580;DHT22;9936;51.040;13.918;2023-01-19T20:38:13;0.30;99.90
19580;DHT22;9936;51.040;13.918;2023-01-19T20:42:00;0.30;99.90
19580;DHT22;9936;51.040;13.918;2023-01-19T20:45:46;0.30;99.90
19580;DHT22;9936;51.040;13.918;2023-01-19T20:49:31;0.30;99.90
19580;DHT22;9936;51.040;13.918;2023-01-19T20:53:17;0.30;99.90
19580;DHT22;9936;51.040;13.918;2023-01-19T20:57:02;0.20;99.90
19580;DHT22;9936;51.040;13.918;2023-01-19T21:00:48;0.30;99.90
19580;DHT22;9936;51.040;13.918;2023-01-19T21:04:34;0.30;99.90
19580;DHT22;9936;51.040;13.918;2023-01-19T21:08:19;0.30;99.90
19580;DHT22;9936;51.040;13.918;2023-01-19T21:12:05;0.30;99.90
19580;DHT22;9936;51.040;13.918;2023-01-19T21:15:53;0.30;99.90
19580;DHT22;9936;51.040;13.918;2023-01-19T21:19:39;0.40;99.90
19580;DHT22;9936;51.040;13.918;2023-01-19T21:23:25;0.30;99.90
19580;DHT22;9936;51.040;13.918;2023-01-19T21:27:13;0.30;99.90
19580;DHT22;9936;51.040;13.918;2023-01-19T21:31:05;0.30;99.90
19580;DHT22;9936;51.040;13.918;2023-01-19T21:34:51;0.30;99.90
19580;DHT22;9936;51.040;13.918;2023-01-19T21:38:37;0.40;99.90
19580;DHT22;9936;51.040;13.918;2023-01-19T21:42:23;0.30;99.90
19580;DHT22;9936;51.040;13.918;2023-01-19T21:46:11;0.40;99.90
19580;DHT22;9936;51.040;13.918;2023-01-19T21:49:57;0.40;99.90
19580;DHT22;9936;51.040;13.918;2023-01-19T21:53:43;0.30;99.90
19580;DHT22;9936;51.040;13.918;2023-01-19T21:57:29;0.40;99.90
19580;DHT22;9936;51.040;13.918;2023-01-19T22:01:15;0.50;99.90
19580;DHT22;9936;51.040;13.918;2023-01-19T22:05:01;0.40;99.90
19580;DHT22;9936;51.040;13.918;2023-01-19T22:08:46;0.40;99.90
19580;DHT22;9936;51.040;13.918;2023-01-19T22:12:32;0.50;99.90
19580;DHT22;9936;51.040;13.918;2023-01-19T22:16:19;0.60;99.90
19580;DHT22;9936;51.040;13.918;2023-01-19T22:20:05;0.50;99.90
19580;DHT22;9936;51.040;13.918;2023-01-19T22:23:53;0.50;99.90
19580;DHT22;9936;51.040;13.918;2023-01-19T22:27:40;0.50;99.90
19580;DHT22;9936;51.040;13.918;2023-01-19T22:31:27;0.50;99.90
19580;DHT22;9936;51.040;13.918;2023-01-19T22:35:13;0.50;99.90
19580;DHT22;9936;51.040;13.918;2023-01-19T22:39:01;0.50;99.90
19580;DHT22;9936;51.040;13.918;2023-01-19T22:42:47;0.50;99.90
19580;DHT22;9936;51.040;13.918;2023-01-19T22:46:34;0.50;99.90
19580;DHT22;9936;51.040;13.918;2023-01-19T22:50:21;0.50;99.90
19580;DHT22;9936;51.040;13.918;2023-01-19T22:54:06;0.40;99.90
19580;DHT22;9936;51.040;13.918;2023-01-19T22:57:52;0.50;99.90
19580;DHT22;9936;51.040;13.918;2023-01-19T23:01:40;0.60;99.90
19580;DHT22;9936;51.040;13.918;2023-01-19T23:05:26;0.50;99.90
19580;DHT22;9936;51.040;13.918;2023-01-19T23:09:13;0.50;99.90
19580;DHT22;9936;51.040;13.918;2023-01-19T23:12:59;0.50;99.90
19580;DHT22;9936;51.040;13.918;2023-01-19T23:16:45;0.50;99.90
19580;DHT22;9936;51.040;13.918;2023-01-19T23:20:31;0.60;99.90
19580;DHT22;9936;51.040;13.918;2023-01-19T23:24:17;0.40;99.90
19580;DHT22;9936;51.040;13.918;2023-01-19T23:28:02;0.50;99.90
19580;DHT22;9936;51.040;13.918;2023-01-19T23:31:48;0.50;99.90
19580;DHT22;9936;51.040;13.918;2023-01-19T23:35:34;0.50;99.90
19580;DHT22;9936;51.040;13.918;2023-01-19T23:39:20;0.50;99.90
19580;DHT22;9936;51.040;13.918;2023-01-19T23:43:06;0.50;99.90
19580;DHT22;9936;51.040;13.918;2023-01-19T23:46:52;0.50;99.90
19580;DHT22;9936;51.040;13.918;2023-01-19T23:50:38;0.50;99.90
